DRI-NNSC Building Weather observations

Data are for 10 minute period ending at time listed.
 Day   Time   Solar   Ave.   Ave.  Ave.  Vector  Max.   Baro.   Total    
  of    of     Rad.   Air    Rel.  Wind   Wind   Wind  Press.  Precip.   
Year   Day            Temp.  Hum.  Speed  Dir.   Gust                    
2016   (PST)  Kw/m2    F      %     mph   deg.    mph    mb.     in.     
-------------------------------------------------------------------------
 236    8:00   0.41   70.0     1    2.2   110      4   852.3    0.00 
 236    8:10   0.44   70.6     1    3.3   114      5   852.2    0.00 
 236    8:20   0.47   70.8     1    3.4   118      6   852.3    0.00 
 236    8:30   0.50   71.2     1    3.6   101      6   852.4    0.00 
 236    8:40   0.53   72.4     1    3.4    90      6   852.4    0.00 
 236    8:50   0.56   73.1     1    3.8   110      7   852.4    0.00 
 236    9:00   0.59   74.0     1    4.3   112      7   852.4    0.00 
 236    9:10   0.61   75.3     1    3.3   122      6   852.3    0.00 
 236    9:20   0.64   76.9     1    2.3   179      7   852.3    0.00 
 236    9:30   0.67   77.2     1    2.5   190      7   852.3    0.00 
 236    9:40   0.69   78.5     1    2.2   160      4   852.4    0.00 
 236    9:50   0.71   79.1     1    2.0   152      6   852.3    0.00 
 236   10:00   0.73   79.2     1    4.3   180      9   852.3    0.00 
 236   10:10   0.76   80.5     1    5.0   197     11   852.2    0.00 
 236   10:20   0.77   81.4     1    7.1   202     15   852.0    0.00 
 236   10:30   0.79   80.8     1    8.1   219     17   851.9    0.00 
 236   10:40   0.85   81.7     1    6.3   212     14   851.8    0.00 
 236   10:50   0.74   82.8     1    6.4   214     15   851.7    0.00 
 236   11:00   0.29   82.7     1    4.3   310      9   851.7    0.00 
 236   11:10   0.37   81.8     1    4.4    33      9   851.6    0.00 
 236   11:20   0.39   82.8     1    3.3   231      9   851.6    0.00 
 236   11:30   0.95   84.1     1    9.3   236     21   851.4    0.00 
 236   11:40   0.56   84.3     1   10.2   246     22   851.5    0.00 
 236   11:50   0.47   84.1     1   11.3   253     20   851.5    0.00 
 236   12:00   0.93   84.9     1   12.2   241     26   851.4    0.00 
 236   12:10   0.49   84.5     1   10.9   240     22   851.4    0.00 
 236   12:20   0.37   83.8     1   11.7   245     27   851.4    0.00 
 236   12:30   0.32   84.0     1    9.8   258     21   851.5    0.00 
 236   12:40   0.45   84.4     1    9.7   263     20   851.3    0.00 
 236   12:50   0.65   84.1     1   12.2   299     22   851.3    0.00 
 236   13:00   0.72   85.3     1   11.6   263     25   851.3    0.00 
 236   13:10   0.95   85.3     1   12.2   292     26   851.3    0.00 
 236   13:20   0.38   85.0     1   11.8   274     25   851.2    0.00 
 236   13:30   0.92   85.3     1   13.4   282     24   851.1    0.00 
 236   13:40   0.87   86.3     1   12.5   269     24   851.1    0.00 
 236   13:50   0.86   86.7     1   13.1   267     23   851.0    0.00 
 236   14:00   0.80   86.8     1   12.2   245     27   851.0    0.00 
 236   14:10   0.83   86.4     1   12.4   259     24   851.0    0.00 
 236   14:20   0.72   86.6     1   13.6   247     27   851.0    0.00 
 236   14:30   0.78   85.9     1   13.6   264     27   851.0    0.00 
 236   14:40   0.77   85.6     1   13.1   269     22   851.1    0.00 
 236   14:50   0.74   85.9     1   12.1   274     22   851.1    0.00 
 236   15:00   0.70   86.3     1   12.1   256     20   851.1    0.00 
 236   15:10   0.70   86.0     1   13.8   261     25   851.0    0.00 
 236   15:20   0.63   86.1     1   12.9   250     24   851.0    0.00 
 236   15:30   0.62   86.0     1   10.1   264     21   851.0    0.00 
 236   15:40   0.58   85.5     1   12.2   252     24   851.0    0.00 
 236   15:50   0.54   85.7     1   12.4   263     27   851.0    0.00 
 236   16:00   0.50   84.9     1   10.6   276     18   851.0    0.00 
 236   16:10   0.47   85.4     1   10.6   282     22   851.0    0.00 
 236   16:20   0.44   85.2     1   10.8   271     21   851.1    0.00 
 236   16:30   0.41   84.4     1   13.1   291     26   851.1    0.00 
 236   16:40   0.37   84.2     1   12.4   285     22   851.1    0.00 
 236   16:50   0.34   84.1     1   10.0   282     20   851.1    0.00 
 236   17:00   0.30   84.5     1    8.9   260     17   851.1    0.00 
 236   17:10   0.27   83.7     1    9.1   280     20   851.2    0.00 
 236   17:20   0.23   83.2     1   10.1   267     19   851.2    0.00 
 236   17:30   0.20   82.8     1    9.4   273     20   851.3    0.00 
 236   17:40   0.16   82.4     1    9.2   265     17   851.3    0.00 
 236   17:50   0.13   81.8     1    9.8   260     18   851.4    0.00 
 236   18:00   0.11   81.4     1    7.8   254     15   851.4    0.00 
 236   18:10   0.09   80.8     1    9.3   258     16   851.5    0.00 
 236   18:20   0.06   80.3     1    7.6   268     14   851.7    0.00 
 236   18:30   0.02   79.0     1    6.5   280     13   851.8    0.00 
 236   18:40   0.01   78.3     1    7.7   283     14   851.9    0.00 
 236   18:50   0.01   77.7     1    6.6   274     14   852.1    0.00 
 236   19:00   0.00   76.9     1    6.7   276     14   852.1    0.00 
 236   19:10   0.00   76.3     1    7.2   275     13   852.2    0.00 
 236   19:20   0.00   75.1     1    6.7   275     11   852.4    0.00 
 236   19:30   0.00   74.7     1    6.4   272     11   852.6    0.00 
 236   19:40   0.00   73.7     1    6.5   269     10   852.7    0.00 
 236   19:50   0.00   73.5     1    7.1   278     11   852.9    0.00 
 236   20:00   0.00   74.2     1    6.6   284     12   852.9    0.00 
 236   20:10   0.00   74.0     1    7.1   276     12   853.1    0.00 
 236   20:20   0.00   73.1     0    6.5   275     12   853.2    0.00 
 236   20:30   0.00   72.5     1    5.8   269     10   853.2    0.00 
 236   20:40   0.00   72.9     1    7.3   274     10   853.4    0.00 
 236   20:50   0.00   72.8     1    6.6   263     11   853.4    0.00 
 236   21:00   0.00   72.5     1    5.3   264      8   853.5    0.00 
 236   21:10   0.00   72.4     1    4.5   279      8   853.5    0.00 
 236   21:20   0.00   71.0     1    2.5   334      6   853.6    0.00 
 236   21:30   0.00   71.0     1    5.1   286     10   853.7    0.00 
 236   21:40   0.00   71.1     1    4.3   278      8   853.6    0.00 
 236   21:50   0.00   70.3     1    6.1   298     10   853.5    0.00 
 236   22:00   0.00   68.9     1    6.1   315     11   853.5    0.00 
 236   22:10   0.00   69.3     1    5.2   299     10   853.5    0.00 
 236   22:20   0.00   69.9     1    6.2   311     11   853.6    0.00 
 236   22:30   0.00   68.8     1    6.2   310     10   853.6    0.00 
 236   22:40   0.00   68.1     1    5.2   311      9   853.5    0.00 
 236   22:50   0.00   68.0     1    4.7   308      8   853.5    0.00 
 236   23:00   0.00   68.7     1    6.4   301     10   853.4    0.00 
 236   23:10   0.00   69.3     1    6.3   292     12   853.4    0.00 
 236   23:20   0.00   68.9     1    5.7   293      9   853.4    0.00 
 236   23:30   0.00   67.4     1    4.5   309      9   853.5    0.00 
 236   23:40   0.00   66.1     1    3.9    15      7   853.6    0.00 
 236   23:50   0.00   65.9     1    4.8    36      6   853.7    0.00 
 237    0:00   0.00   68.0     1    4.4    12      8   853.6    0.00 
 237    0:10   0.00   68.2     1    2.8   349      5   853.7    0.00 
 237    0:20   0.00   67.3     1    2.4   318      4   853.7    0.00 
 237    0:30   0.00   66.1     1    2.5   314      5   853.7    0.00 
 237    0:40   0.00   65.9     1    2.1   326      4   853.8    0.00 
 237    0:50   0.00   65.5     1    4.2   336      6   853.8    0.00 
 237    1:00   0.00   65.8     1    5.3   349      7   853.7    0.00 
 237    1:10   0.00   66.1     1    6.1   354      8   853.6    0.00 
 237    1:20   0.00   67.0     1    6.2   356      8   853.6    0.00 
 237    1:30   0.00   67.1     1    4.3   351      7   853.5    0.00 
 237    1:40   0.00   67.7     1    5.4   354      8   853.5    0.00 
 237    1:50   0.00   68.4     1    5.6   357      8   853.5    0.00 
 237    2:00   0.00   65.0     1    2.4   190      4   853.6    0.00 
 237    2:10   0.00   62.8     1    1.3   187      2   853.6    0.00 
 237    2:20   0.00   62.2     1    1.2   228      3   853.7    0.00 
 237    2:30   0.00   62.2     1    1.6   271      3   853.6    0.00 
 237    2:40   0.00   62.5     0    2.1   260      4   853.6    0.00 
 237    2:50   0.00   61.9     1    0.9   233      2   853.6    0.00 
 237    3:00   0.00   61.9     1    1.5   283      3   853.6    0.00 
 237    3:10   0.00   62.3     0    1.3   296      2   853.6    0.00 
 237    3:20   0.00   63.3     1    1.2   314      3   853.7    0.00 
 237    3:30   0.00   63.4     1    0.3   303      1   853.7    0.00 
 237    3:40   0.00   63.7     1    1.7   349      2   853.6    0.00 
 237    3:50   0.00   63.9     1    1.7    53      3   853.6    0.00 
 237    4:00   0.00   63.6     1    2.4    31      4   853.5    0.00 
 237    4:10   0.00   62.8     1    1.2   161      2   853.6    0.00 
 237    4:20   0.00   61.3     1    2.7    77      4   853.6    0.00 
 237    4:30   0.00   61.4     1    2.9    47      4   853.6    0.00 
 237    4:40   0.00   59.9     1    2.9    75      4   853.6    0.00 
 237    4:50   0.00   59.1     0    2.3    54      4   853.6    0.00 
 237    5:00   0.00   59.3     0    2.2    39      4   853.7    0.00 
 237    5:10   0.00   58.9     0    0.6    29      2   853.8    0.00 
 237    5:20   0.00   58.6     0    1.4   300      2   854.0    0.00 
 237    5:30   0.00   58.9     0    2.0   271      4   854.1    0.00 
 237    5:40   0.01   59.6     0    2.9   307      5   854.1    0.00 
 237    5:50   0.02   60.6     0    3.1   312      5   854.0    0.00 
 237    6:00   0.05   61.6     1    1.7    28      4   854.1    0.00 
 237    6:10   0.09   61.1     1    1.5    29      3   854.2    0.00 
 237    6:20   0.11   63.5     1    0.7   329      2   854.3    0.00 
 237    6:30   0.14   63.0     1    2.5   336      4   854.3    0.00 
 237    6:40   0.17   64.0     1    1.4    44      2   854.4    0.00 
 237    6:50   0.20   63.4     1    2.3    57      3   854.4    0.00 
 237    7:00   0.23   63.1     1    1.2    42      3   854.4    0.00 
 237    7:10   0.27   64.5     1    1.1   181      2   854.4    0.00 
 237    7:20   0.30   66.6     1    1.3   172      2   854.4    0.00 
 237    7:30   0.34   66.3     1    1.8   172      3   854.5    0.00 
 237    7:40   0.37   65.7     1    2.6   167      4   854.5    0.00 
 237    7:50   0.40   65.0     1    3.2   163      5   854.5    0.00 

Return to NNSC graphs page.


Western Regional Climate Center,wrcc@dri.edu